Time;durP1;ratioP1;P1;durP2;ratioP2;P2;SDS_P1;SDS_P2;PMS_P1;PMS_P2;Temp;Humidity;BMP_temperature;BMP_pressure;BME280_temperature;BME280_humidity;BME280_pressure;Samples;Min_cycle;Max_cycle;Signal;HPM_P1;HPM_P2
2020/12/31 00:00:41;;;;;;;13.98;7.78;;;;;;;0.34;60.12;100085.22;4972917;28;20041;-71
2020/12/31 00:03:06;;;;;;;10.25;7.50;;;;;;;1.02;58.23;100082.72;5004467;28;20038;-71
2020/12/31 00:05:32;;;;;;;16.63;7.25;;;;;;;0.65;59.57;100080.59;5009407;28;20030;-72
2020/12/31 00:07:57;;;;;;;11.38;7.32;;;;;;;1.10;57.86;100072.31;5011504;28;20083;-71
2020/12/31 00:10:23;;;;;;;14.27;7.60;;;;;;;1.32;57.58;100072.88;5010823;28;20038;-71
2020/12/31 00:12:48;;;;;;;11.68;7.45;;;;;;;0.88;59.22;100076.88;4986450;28;20084;-71
2020/12/31 00:15:14;;;;;;;18.75;7.72;;;;;;;1.22;58.03;100082.47;4999325;28;20034;-71
2020/12/31 00:17:40;;;;;;;15.68;9.10;;;;;;;0.89;59.02;100070.88;4986091;28;20075;-71
2020/12/31 00:20:09;;;;;;;18.45;8.70;;;;;;;0.76;59.46;100077.91;5001713;28;20495;-71
2020/12/31 00:22:34;;;;;;;15.65;8.70;;;;;;;1.25;57.78;100073.84;4996062;28;20064;-71
2020/12/31 00:25:00;;;;;;;13.90;8.20;;;;;;;1.13;58.32;100076.56;5004910;28;20049;-72
2020/12/31 00:27:25;;;;;;;17.85;8.45;;;;;;;1.13;58.80;100071.41;5003707;28;20026;-71
2020/12/31 00:29:51;;;;;;;13.75;7.00;;;;;;;1.02;58.59;100079.31;5011546;28;20030;-70
2020/12/31 00:32:16;;;;;;;13.68;8.02;;;;;;;1.14;58.62;100073.97;4996827;28;20038;-71
2020/12/31 00:34:42;;;;;;;21.90;8.90;;;;;;;1.22;57.90;100081.63;4991461;28;20091;-71
2020/12/31 00:37:07;;;;;;;16.13;9.20;;;;;;;1.55;56.93;100070.00;5010831;28;20025;-71
2020/12/31 00:39:33;;;;;;;14.15;7.85;;;;;;;1.38;57.56;100077.94;5010814;28;20037;-71
2020/12/31 00:41:58;;;;;;;14.77;8.30;;;;;;;0.54;60.26;100082.44;5010598;28;20041;-71
2020/12/31 00:44:24;;;;;;;19.20;10.02;;;;;;;1.29;58.53;100078.06;5015187;28;20054;-72
2020/12/31 00:46:49;;;;;;;16.00;8.90;;;;;;;1.58;57.10;100071.69;4999407;28;20101;-71
2020/12/31 00:49:15;;;;;;;22.40;10.48;;;;;;;1.65;57.04;100074.13;5012727;28;20033;-71
2020/12/31 00:51:41;;;;;;;22.95;10.35;;;;;;;1.21;58.58;100080.75;4988759;28;20061;-71
2020/12/31 00:54:06;;;;;;;17.48;9.52;;;;;;;1.44;58.34;100077.00;4996023;28;20045;-70
2020/12/31 00:56:32;;;;;;;23.20;11.30;;;;;;;1.01;59.25;100082.75;4991354;28;20084;-72
2020/12/31 00:58:58;;;;;;;29.58;12.73;;;;;;;1.21;58.64;100074.75;4991574;28;20026;-71
2020/12/31 01:01:26;;;;;;;23.25;11.75;;;;;;;0.88;59.85;100082.91;5008858;28;20030;-70
2020/12/31 01:03:51;;;;;;;26.38;12.80;;;;;;;1.07;58.84;100082.66;4988615;28;20400;-71
2020/12/31 01:06:17;;;;;;;26.20;12.40;;;;;;;1.77;57.35;100079.94;4971516;28;20030;-71
2020/12/31 01:08:42;;;;;;;21.70;11.63;;;;;;;1.52;57.89;100086.34;5012643;28;20185;-71
2020/12/31 01:11:08;;;;;;;26.30;13.07;;;;;;;0.86;59.88;100089.78;5012548;28;20049;-71
2020/12/31 01:13:33;;;;;;;27.33;12.52;;;;;;;0.67;60.62;100089.16;5012668;28;20046;-71
2020/12/31 01:15:59;;;;;;;25.23;12.80;;;;;;;1.70;57.56;100080.03;4980646;28;20227;-72
2020/12/31 01:18:25;;;;;;;23.05;10.05;;;;;;;1.18;58.99;100090.25;4983908;28;20442;-70
2020/12/31 01:20:50;;;;;;;29.05;13.27;;;;;;;1.83;56.75;100091.00;4998004;28;20030;-72
2020/12/31 01:23:16;;;;;;;25.70;12.55;;;;;;;1.67;57.42;100087.00;5017187;28;20060;-71
2020/12/31 01:25:41;;;;;;;30.33;14.02;;;;;;;1.46;57.80;100091.59;4982966;28;20038;-71
2020/12/31 01:28:07;;;;;;;30.23;14.10;;;;;;;0.72;60.45;100095.97;5013691;28;20040;-71
2020/12/31 01:30:32;;;;;;;30.70;13.50;;;;;;;1.69;57.68;100088.66;5012230;28;20091;-72
2020/12/31 01:32:58;;;;;;;29.13;14.48;;;;;;;1.49;57.75;100095.84;4997440;28;20116;-71
2020/12/31 01:35:24;;;;;;;30.75;15.27;;;;;;;1.52;57.79;100096.63;4989406;28;20056;-72
2020/12/31 01:37:49;;;;;;;30.38;15.43;;;;;;;1.27;58.61;100095.25;5011835;28;20033;-71
2020/12/31 01:40:15;;;;;;;28.77;15.35;;;;;;;1.58;57.79;100098.28;5015233;28;20033;-72
2020/12/31 01:42:42;;;;;;;31.63;14.68;;;;;;;1.53;57.90;100097.50;5009807;28;20034;-70
2020/12/31 01:45:08;;;;;;;35.03;15.48;;;;;;;1.40;58.09;100107.13;5005247;28;20093;-71
2020/12/31 01:47:35;;;;;;;41.03;17.65;;;;;;;1.07;58.77;100106.66;5013452;28;20057;-71
2020/12/31 01:50:01;;;;;;;40.15;16.15;;;;;;;1.18;58.70;100101.38;4990407;28;20038;-71
2020/12/31 01:52:28;;;;;;;33.80;16.67;;;;;;;1.37;58.63;100098.56;5002612;28;20027;-71
2020/12/31 01:54:54;;;;;;;33.70;17.05;;;;;;;2.07;56.68;100094.91;5008008;28;20121;-71
2020/12/31 01:57:20;;;;;;;35.60;16.55;;;;;;;1.94;56.61;100099.41;5005452;28;20072;-71
2020/12/31 01:59:45;;;;;;;42.90;16.13;;;;;;;1.88;57.13;100104.66;5008326;28;20079;-71
2020/12/31 02:02:11;;;;;;;29.92;16.13;;;;;;;1.87;57.14;100112.44;5006204;28;20030;-72
2020/12/31 02:04:38;;;;;;;27.38;14.90;;;;;;;1.70;57.26;100099.81;5011933;28;20038;-71
2020/12/31 02:07:05;;;;;;;39.55;17.40;;;;;;;2.16;55.57;100104.22;5010625;28;20483;-71
2020/12/31 02:09:31;;;;;;;35.53;16.38;;;;;;;1.73;57.35;100110.94;5013348;28;20053;-70
2020/12/31 02:12:04;;;;;;;36.22;15.88;;;;;;;0.74;59.35;100112.22;5003160;28;20034;-71
2020/12/31 02:14:31;;;;;;;38.85;16.48;;;;;;;1.64;57.88;100117.94;4990902;28;20044;-71
2020/12/31 02:16:57;;;;;;;42.67;17.60;;;;;;;1.15;59.01;100105.72;5003492;28;20042;-71
2020/12/31 02:19:23;;;;;;;41.45;17.70;;;;;;;1.29;58.60;100114.97;5009439;28;20116;-71
2020/12/31 02:21:49;;;;;;;34.83;17.55;;;;;;;1.88;57.16;100104.66;4995097;28;20118;-72
2020/12/31 02:24:16;;;;;;;37.72;16.70;;;;;;;1.61;57.63;100110.25;5010869;28;20018;-71
2020/12/31 02:26:44;;;;;;;39.05;18.70;;;;;;;2.06;56.25;100100.94;5007079;28;20063;-71
2020/12/31 02:29:12;;;;;;;43.97;18.95;;;;;;;1.51;58.09;100119.84;5000253;28;20128;-71
2020/12/31 02:31:38;;;;;;;36.63;17.48;;;;;;;0.86;59.96;100110.38;5009000;28;20064;-70
2020/12/31 02:34:05;;;;;;;50.25;20.42;;;;;;;1.36;58.31;100109.75;5000029;28;20613;-71
2020/12/31 02:36:33;;;;;;;41.78;17.08;;;;;;;1.47;57.82;100113.88;4991067;28;20056;-71
2020/12/31 02:39:00;;;;;;;47.10;18.92;;;;;;;1.58;57.81;100108.59;4996250;28;20036;-70
2020/12/31 02:41:26;;;;;;;44.42;20.63;;;;;;;1.52;57.85;100111.25;5005786;28;20049;-71
2020/12/31 02:43:52;;;;;;;41.72;19.27;;;;;;;1.90;57.00;100109.78;5025809;22;20579;-72
2020/12/31 02:46:21;;;;;;;40.50;17.40;;;;;;;1.76;56.91;100110.03;5026333;28;20041;-72
2020/12/31 02:48:48;;;;;;;42.72;19.10;;;;;;;2.25;55.97;100114.38;5024644;28;20117;-72
2020/12/31 02:51:14;;;;;;;39.38;18.77;;;;;;;2.11;56.03;100106.03;5025244;28;20075;-72
2020/12/31 02:53:43;;;;;;;36.53;17.63;;;;;;;1.29;58.49;100114.13;5022018;28;20136;-70
2020/12/31 02:56:10;;;;;;;36.20;17.15;;;;;;;1.45;58.08;100102.75;5019346;28;20104;-73
2020/12/31 02:58:37;;;;;;;39.17;17.63;;;;;;;1.11;58.24;100105.75;5022137;28;20041;-72
2020/12/31 03:01:03;;;;;;;45.92;18.88;;;;;;;1.86;56.71;100106.44;5021691;28;20064;-73
2020/12/31 03:03:28;;;;;;;40.08;18.77;;;;;;;1.89;56.67;100100.38;5021787;28;20121;-73
2020/12/31 03:05:53;;;;;;;36.15;17.20;;;;;;;1.42;57.70;100107.13;5018488;28;20128;-75
2020/12/31 03:08:19;;;;;;;40.38;18.30;;;;;;;1.58;56.85;100094.88;5009589;28;20411;-74
2020/12/31 03:10:44;;;;;;;39.28;18.08;;;;;;;2.02;56.09;100090.69;5019490;28;20040;-72
2020/12/31 03:13:10;;;;;;;44.20;18.55;;;;;;;2.06;56.17;100094.94;5020683;28;20040;-73
2020/12/31 03:15:35;;;;;;;39.92;17.92;;;;;;;1.94;56.14;100094.25;5017806;28;20524;-73
2020/12/31 03:18:01;;;;;;;34.63;17.23;;;;;;;1.11;58.85;100100.63;5022655;28;20029;-72
2020/12/31 03:20:26;;;;;;;40.15;18.17;;;;;;;0.88;59.45;100092.31;5001090;28;20053;-75
2020/12/31 03:22:51;;;;;;;36.95;18.38;;;;;;;1.37;58.08;100093.41;5001566;28;20033;-73
2020/12/31 03:25:17;;;;;;;41.78;18.65;;;;;;;1.75;56.83;100092.00;5007199;28;20103;-74
2020/12/31 03:27:42;;;;;;;49.47;18.92;;;;;;;1.66;57.10;100093.00;5003053;28;20041;-73
2020/12/31 03:30:08;;;;;;;36.88;17.20;;;;;;;1.84;56.45;100084.13;5007347;28;20446;-72
2020/12/31 03:32:33;;;;;;;47.28;17.45;;;;;;;1.57;56.94;100095.72;5019144;28;20041;-73
2020/12/31 03:34:59;;;;;;;37.83;18.35;;;;;;;2.17;55.62;100097.31;5022573;28;20238;-73
2020/12/31 03:37:27;;;;;;;43.63;19.83;;;;;;;1.59;57.38;100087.09;5003691;28;20501;-74
2020/12/31 03:39:53;;;;;;;47.05;18.15;;;;;;;1.79;56.48;100088.50;5015353;28;20386;-73
2020/12/31 03:42:19;;;;;;;40.22;18.20;;;;;;;1.83;56.70;100090.16;5018981;28;20025;-70
2020/12/31 03:44:44;;;;;;;40.25;19.67;;;;;;;2.05;56.07;100081.19;5021847;28;20564;-71
2020/12/31 03:47:10;;;;;;;44.15;18.58;;;;;;;1.72;56.66;100087.75;5021567;28;20041;-72
2020/12/31 03:49:36;;;;;;;39.20;19.00;;;;;;;1.21;58.21;100085.03;5019772;28;20033;-71
2020/12/31 03:52:01;;;;;;;37.30;17.45;;;;;;;1.04;58.55;100081.00;5021349;28;20037;-71
2020/12/31 03:54:26;;;;;;;39.55;19.23;;;;;;;2.01;56.40;100076.13;5017871;28;20033;-72
2020/12/31 03:56:52;;;;;;;37.00;17.15;;;;;;;2.05;55.87;100082.94;4998702;28;20118;-74
2020/12/31 03:59:17;;;;;;;41.00;18.33;;;;;;;1.49;57.28;100083.81;5015108;28;20053;-72
2020/12/31 04:01:45;;;;;;;39.15;18.10;;;;;;;1.79;56.41;100073.88;5005726;28;20053;-72
2020/12/31 04:04:11;;;;;;;35.03;17.00;;;;;;;1.56;57.47;100082.00;5009956;28;20034;-73
2020/12/31 04:06:36;;;;;;;35.75;17.92;;;;;;;2.03;55.84;100082.09;5019270;28;20092;-72
2020/12/31 04:09:02;;;;;;;40.15;17.60;;;;;;;2.34;54.68;100075.50;5026642;28;20038;-73
2020/12/31 04:11:27;;;;;;;42.55;18.90;;;;;;;2.02;55.51;100067.50;5027303;28;20056;-73
2020/12/31 04:13:53;;;;;;;35.38;17.15;;;;;;;1.97;55.89;100074.47;5019284;28;20025;-72
2020/12/31 04:16:20;;;;;;;35.38;16.67;;;;;;;2.05;55.75;100075.19;5026217;28;20093;-72
2020/12/31 04:18:46;;;;;;;36.13;18.02;;;;;;;1.50;57.08;100077.78;5008832;28;20044;-72
2020/12/31 04:21:11;;;;;;;38.70;18.67;;;;;;;1.94;56.15;100075.38;4989760;28;20041;-73
2020/12/31 04:23:39;;;;;;;36.03;16.85;;;;;;;1.77;56.66;100073.06;5024558;28;20113;-72
2020/12/31 04:26:04;;;;;;;34.08;17.55;;;;;;;1.72;56.66;100067.16;5016011;28;20033;-73
2020/12/31 04:28:30;;;;;;;32.97;16.42;;;;;;;1.73;56.69;100066.28;5028250;28;20088;-72
2020/12/31 04:30:55;;;;;;;33.03;16.83;;;;;;;2.03;56.03;100064.06;5024918;28;20041;-74
2020/12/31 04:33:21;;;;;;;40.20;17.60;;;;;;;1.89;56.00;100062.56;5023139;28;20038;-71
2020/12/31 04:35:46;;;;;;;36.25;17.33;;;;;;;1.82;56.58;100063.56;5005543;28;20021;-72
2020/12/31 04:38:12;;;;;;;33.75;17.92;;;;;;;2.16;55.48;100062.97;4995201;28;20183;-71
2020/12/31 04:40:44;;;;;;;41.58;18.63;;;;;;;1.47;57.66;100059.81;5026440;28;20022;-72
2020/12/31 04:43:11;;;;;;;39.97;18.30;;;;;;;1.76;56.60;100055.91;5007925;28;20063;-71
2020/12/31 04:45:43;;;;;;;36.78;16.80;;;;;;;2.05;55.59;100064.88;5020941;28;20033;-73
2020/12/31 04:48:20;;;;;;;34.17;18.88;;;;;;;1.87;56.30;100060.91;5023172;28;20599;-72
2020/12/31 04:50:48;;;;;;;39.97;18.73;;;;;;;2.45;54.59;100069.31;5020731;28;20028;-72
2020/12/31 04:53:14;;;;;;;41.30;18.33;;;;;;;2.04;55.84;100073.47;5010068;28;20037;-72
2020/12/31 04:55:45;;;;;;;36.88;18.02;;;;;;;2.26;54.98;100066.22;5005337;28;20501;-70
2020/12/31 04:58:15;;;;;;;32.17;17.27;;;;;;;2.06;55.57;100074.31;5021929;28;20800;-72
2020/12/31 05:00:42;;;;;;;36.25;18.35;;;;;;;1.55;56.66;100072.59;5025198;28;20037;-72
2020/12/31 05:03:08;;;;;;;36.05;17.30;;;;;;;1.08;58.36;100076.63;5018409;28;20033;-74
2020/12/31 05:05:35;;;;;;;43.45;18.95;;;;;;;1.60;56.47;100069.94;5003063;28;20064;-71
2020/12/31 05:08:02;;;;;;;36.67;18.80;;;;;;;1.99;56.27;100075.28;5026807;28;20033;-72
2020/12/31 05:10:28;;;;;;;40.40;18.23;;;;;;;1.85;56.28;100078.94;5024593;28;20038;-71
2020/12/31 05:13:07;;;;;;;33.67;17.40;;;;;;;2.08;55.53;100069.97;5026216;28;20068;-74
2020/12/31 05:15:35;;;;;;;29.85;16.08;;;;;;;2.30;55.14;100075.59;5020127;28;20025;-73
2020/12/31 05:18:17;;;;;;;35.15;17.27;;;;;;;1.77;56.63;100078.22;5024912;28;20041;-74
2020/12/31 05:20:46;;;;;;;31.88;16.63;;;;;;;1.88;56.19;100073.75;5018236;28;20038;-73
2020/12/31 05:23:15;;;;;;;36.90;16.55;;;;;;;1.65;56.59;100078.44;5027018;28;20052;-74
2020/12/31 05:25:41;;;;;;;33.03;17.25;;;;;;;1.84;55.84;100085.00;5026484;28;20041;-73
2020/12/31 05:28:27;;;;;;;34.97;16.27;;;;;;;2.42;54.41;100087.41;5011112;28;20115;-72
2020/12/31 05:30:56;;;;;;;31.48;16.42;;;;;;;2.01;55.45;100084.69;5023076;28;20033;-73
2020/12/31 05:33:38;;;;;;;40.13;17.45;;;;;;;1.84;56.16;100082.41;5005775;28;20029;-72
2020/12/31 05:36:28;;;;;;;33.75;15.55;;;;;;;1.35;57.61;100077.13;5004135;28;20120;-72
2020/12/31 05:39:02;;;;;;;33.60;16.83;;;;;;;1.47;57.22;100087.28;5020202;28;20029;-71
2020/12/31 05:41:33;;;;;;;34.03;15.90;;;;;;;1.43;57.43;100081.31;5018076;28;20113;-72
2020/12/31 05:44:09;;;;;;;30.07;12.30;;;;;;;2.23;55.37;100085.19;5026804;28;20034;-72
2020/12/31 05:46:38;;;;;;;31.63;14.80;;;;;;;2.04;55.37;100081.22;5025729;28;20041;-72
2020/12/31 05:49:06;;;;;;;34.08;15.57;;;;;;;2.31;54.77;100085.91;5020236;28;20037;-71
2020/12/31 05:51:33;;;;;;;32.22;15.90;;;;;;;2.11;55.52;100090.56;5016452;28;20029;-72
2020/12/31 05:54:13;;;;;;;40.08;16.65;;;;;;;2.44;54.55;100088.22;5007419;28;20045;-72
2020/12/31 05:56:40;;;;;;;31.65;15.63;;;;;;;2.19;54.66;100083.53;5022695;28;20156;-72
2020/12/31 05:59:24;;;;;;;29.92;14.45;;;;;;;2.42;54.46;100095.16;5024403;28;20663;-73
2020/12/31 06:01:57;;;;;;;31.20;15.55;;;;;;;2.53;53.85;100088.06;5004401;28;20048;-71
2020/12/31 06:04:46;;;;;;;30.67;14.93;;;;;;;2.18;54.68;100091.31;4992784;28;20029;-72
2020/12/31 06:07:46;;;;;;;25.42;14.35;;;;;;;1.68;55.92;100086.94;5013016;28;20430;-73
2020/12/31 06:10:17;;;;;;;25.52;13.02;;;;;;;2.16;54.90;100093.91;4999707;28;20041;-72
2020/12/31 06:12:50;;;;;;;32.28;13.65;;;;;;;1.97;55.68;100088.19;5002429;28;20037;-72
2020/12/31 06:15:17;;;;;;;29.35;15.55;;;;;;;1.33;57.32;100095.19;4998121;28;20632;-73
2020/12/31 06:17:48;;;;;;;29.75;13.80;;;;;;;2.04;55.78;100096.69;5018784;28;20029;-73
2020/12/31 06:20:18;;;;;;;29.27;15.05;;;;;;;1.70;56.39;100095.50;5021549;28;20086;-72
2020/12/31 06:23:07;;;;;;;22.65;12.23;;;;;;;2.39;54.53;100100.38;5022177;28;20049;-73
2020/12/31 06:25:40;;;;;;;28.95;14.02;;;;;;;1.96;55.78;100095.97;5021360;28;20540;-73
2020/12/31 06:28:08;;;;;;;25.35;12.60;;;;;;;1.81;55.59;100105.63;5023449;28;20371;-72
2020/12/31 06:30:35;;;;;;;27.92;13.13;;;;;;;1.44;57.27;100111.38;5004337;28;20397;-72
2020/12/31 06:33:14;;;;;;;26.38;12.40;;;;;;;1.62;56.55;100109.41;5019282;28;20216;-72
2020/12/31 06:35:40;;;;;;;31.05;12.82;;;;;;;1.62;56.04;100106.81;5022895;28;20449;-74
2020/12/31 06:38:09;;;;;;;31.10;13.93;;;;;;;1.47;56.64;100113.88;5006428;28;20044;-72
2020/12/31 06:40:36;;;;;;;27.10;13.05;;;;;;;1.38;57.18;100111.41;5023062;28;20056;-72
2020/12/31 06:43:10;;;;;;;26.98;13.85;;;;;;;1.23;57.47;100119.34;5022108;28;20132;-74
2020/12/31 06:45:43;;;;;;;23.17;11.73;;;;;;;1.43;57.10;100116.53;5018227;28;20056;-74
2020/12/31 06:48:27;;;;;;;28.92;12.60;;;;;;;1.90;55.55;100120.94;5022547;28;20120;-74
2020/12/31 06:51:10;;;;;;;30.25;13.57;;;;;;;2.02;54.81;100116.47;5011336;28;20068;-73
2020/12/31 06:53:46;;;;;;;30.42;13.05;;;;;;;1.97;55.25;100110.53;5001772;28;20033;-71
2020/12/31 06:56:14;;;;;;;27.95;12.63;;;;;;;1.68;55.86;100115.28;5001962;28;20060;-71
2020/12/31 06:58:44;;;;;;;23.17;11.95;;;;;;;1.05;57.59;100123.84;5003142;28;20061;-73
2020/12/31 07:01:26;;;;;;;31.45;12.63;;;;;;;1.37;56.94;100111.44;5020642;28;20120;-73
2020/12/31 07:03:53;;;;;;;26.35;13.32;;;;;;;1.59;56.27;100112.84;5018170;28;20022;-73
2020/12/31 07:06:31;;;;;;;20.48;12.00;;;;;;;1.92;55.15;100121.78;5021553;28;20766;-72
2020/12/31 07:09:03;;;;;;;20.10;10.07;;;;;;;1.53;56.30;100115.53;5020415;28;20024;-73
2020/12/31 07:11:32;;;;;;;23.02;11.10;;;;;;;1.57;56.02;100124.06;5019084;28;20398;-73
2020/12/31 07:13:59;;;;;;;28.88;11.38;;;;;;;1.92;54.84;100123.50;5019599;28;20881;-72
2020/12/31 07:16:39;;;;;;;23.05;11.98;;;;;;;1.93;54.96;100128.66;5002746;28;20029;-76
2020/12/31 07:19:05;;;;;;;21.63;10.30;;;;;;;1.48;56.24;100128.47;5011092;28;20065;-73
2020/12/31 07:21:30;;;;;;;24.10;12.15;;;;;;;1.65;55.88;100132.53;5020071;28;20036;-72
2020/12/31 07:23:56;;;;;;;21.95;11.30;;;;;;;2.34;53.77;100131.41;5020642;28;20045;-74
2020/12/31 07:26:29;;;;;;;17.88;9.30;;;;;;;1.55;55.97;100128.38;4999956;28;20026;-73
2020/12/31 07:28:56;;;;;;;22.88;10.32;;;;;;;1.40;56.58;100140.59;5019659;28;20025;-72
2020/12/31 07:31:41;;;;;;;20.52;10.68;;;;;;;1.72;55.90;100134.13;5020108;28;20045;-72
2020/12/31 07:34:25;;;;;;;21.27;10.88;;;;;;;1.57;55.45;100139.50;5002448;28;20026;-76
2020/12/31 07:36:58;;;;;;;16.75;8.43;;;;;;;1.26;56.42;100139.88;5022812;28;20040;-74
2020/12/31 07:39:24;;;;;;;26.38;10.52;;;;;;;2.13;54.39;100130.91;5010253;28;20029;-72
2020/12/31 07:41:50;;;;;;;25.50;11.27;;;;;;;2.31;54.09;100139.16;5027348;28;20033;-74
2020/12/31 07:44:16;;;;;;;22.73;11.02;;;;;;;2.26;53.64;100141.00;5023827;28;20676;-73
2020/12/31 07:46:43;;;;;;;19.30;10.20;;;;;;;1.91;54.54;100137.28;5017996;28;20144;-72
2020/12/31 07:49:12;;;;;;;20.73;9.70;;;;;;;1.65;55.23;100147.97;5006507;28;20049;-72
2020/12/31 07:51:47;;;;;;;19.80;9.98;;;;;;;2.01;54.93;100140.56;5023042;28;20029;-72
2020/12/31 07:54:14;;;;;;;20.25;9.95;;;;;;;2.07;54.93;100151.63;5024153;28;20037;-72
2020/12/31 07:56:40;;;;;;;22.25;9.60;;;;;;;1.71;55.19;100148.75;5008621;28;20064;-72
2020/12/31 07:59:06;;;;;;;21.35;10.55;;;;;;;1.24;56.47;100151.97;5025168;28;20032;-72
2020/12/31 08:01:32;;;;;;;21.83;11.48;;;;;;;0.90;57.10;100153.22;5024420;28;20029;-72
2020/12/31 08:04:10;;;;;;;22.25;10.40;;;;;;;1.52;56.17;100157.59;5018158;28;20033;-75
2020/12/31 08:06:36;;;;;;;19.92;9.20;;;;;;;2.06;54.37;100152.47;5014523;28;20049;-74
2020/12/31 08:09:02;;;;;;;23.33;10.55;;;;;;;2.35;53.59;100156.31;5036487;23;20032;-70
2020/12/31 08:11:28;;;;;;;23.63;11.07;;;;;;;2.10;54.54;100161.03;5040413;28;20044;-69
2020/12/31 08:14:03;;;;;;;27.02;11.35;;;;;;;1.89;54.90;100164.81;5022048;28;20030;-68
2020/12/31 08:16:29;;;;;;;21.88;10.55;;;;;;;1.35;56.65;100170.69;5022666;28;20101;-69
2020/12/31 08:18:57;;;;;;;21.45;10.77;;;;;;;1.08;56.70;100165.00;5025687;28;20136;-70
2020/12/31 08:21:23;;;;;;;25.48;12.50;;;;;;;1.43;56.38;100171.44;5027835;28;20037;-67
2020/12/31 08:23:57;;;;;;;27.30;12.27;;;;;;;0.95;57.57;100178.91;5022999;28;20044;-68
2020/12/31 08:26:22;;;;;;;20.70;9.90;;;;;;;1.35;56.38;100168.13;5022380;28;20091;-68
2020/12/31 08:28:48;;;;;;;25.73;11.68;;;;;;;1.54;55.98;100173.03;5021577;28;20029;-68
2020/12/31 08:31:16;;;;;;;23.15;11.32;;;;;;;1.70;55.30;100166.78;5024809;28;20064;-68
2020/12/31 08:33:43;;;;;;;25.95;12.48;;;;;;;1.87;54.67;100167.41;5008559;28;20033;-69
2020/12/31 08:36:09;;;;;;;25.15;12.05;;;;;;;1.76;55.23;100171.84;5026551;28;20036;-68
2020/12/31 08:38:39;;;;;;;29.20;13.18;;;;;;;1.08;57.40;100174.44;5020557;28;20045;-68
2020/12/31 08:41:08;;;;;;;32.03;13.35;;;;;;;1.65;56.06;100168.59;5026096;28;20033;-69
2020/12/31 08:43:36;;;;;;;27.77;12.18;;;;;;;0.78;58.31;100162.78;5023150;28;20045;-69
2020/12/31 08:46:03;;;;;;;29.10;12.48;;;;;;;1.66;55.81;100168.56;5024208;28;20117;-67
2020/12/31 08:48:34;;;;;;;31.98;13.57;;;;;;;1.85;55.76;100171.72;5041049;28;20509;-68
2020/12/31 08:51:00;;;;;;;32.35;13.57;;;;;;;1.71;55.56;100168.50;5004246;28;20695;-68
2020/12/31 08:53:27;;;;;;;33.05;13.55;;;;;;;1.38;56.98;100170.63;5022148;28;20628;-68
2020/12/31 08:55:56;;;;;;;36.65;15.50;;;;;;;1.78;56.13;100167.53;5025293;28;20033;-68
2020/12/31 08:58:30;;;;;;;33.35;14.55;;;;;;;1.50;56.90;100167.06;5004613;28;20033;-68
2020/12/31 09:00:57;;;;;;;32.72;14.07;;;;;;;1.88;55.66;100166.50;5026620;28;20056;-68
2020/12/31 09:03:24;;;;;;;33.13;12.88;;;;;;;1.76;56.04;100166.72;5027085;28;20075;-70
2020/12/31 09:05:57;;;;;;;31.58;14.10;;;;;;;2.15;55.01;100169.53;5023747;28;20111;-68
2020/12/31 09:08:23;;;;;;;36.38;14.70;;;;;;;1.56;56.65;100168.72;5008562;28;20068;-69
2020/12/31 09:10:59;;;;;;;27.80;12.50;;;;;;;2.16;54.80;100170.41;5024295;28;20056;-71
2020/12/31 09:13:24;;;;;;;36.17;15.27;;;;;;;1.62;55.96;100171.22;5018418;28;20030;-68
2020/12/31 09:16:08;;;;;;;30.20;13.65;;;;;;;2.11;54.96;100167.91;5023856;28;20075;-67
2020/12/31 09:18:34;;;;;;;33.92;13.95;;;;;;;1.73;55.77;100172.75;5020048;28;20893;-68
2020/12/31 09:21:00;;;;;;;34.00;14.88;;;;;;;2.39;54.15;100168.28;5021752;28;20033;-69
2020/12/31 09:23:25;;;;;;;33.42;13.43;;;;;;;1.02;57.35;100167.66;5021443;28;20156;-68
2020/12/31 09:25:52;;;;;;;38.30;14.82;;;;;;;1.88;55.59;100173.41;5023057;28;20046;-68
2020/12/31 09:28:18;;;;;;;31.33;14.20;;;;;;;1.44;56.39;100173.16;5014713;28;20041;-67
2020/12/31 09:30:44;;;;;;;30.20;13.95;;;;;;;1.82;55.66;100166.63;5024037;28;21066;-68
2020/12/31 09:33:18;;;;;;;31.08;14.57;;;;;;;1.98;55.09;100171.56;5024096;28;20025;-68
2020/12/31 09:35:45;;;;;;;33.35;13.18;;;;;;;2.34;54.14;100173.50;5040817;28;20053;-68
2020/12/31 09:38:11;;;;;;;34.15;15.75;;;;;;;1.87;55.53;100169.97;5010448;28;20535;-68
2020/12/31 09:40:38;;;;;;;31.63;14.15;;;;;;;2.43;54.20;100169.94;5016241;28;20057;-67
2020/12/31 09:43:04;;;;;;;33.78;14.77;;;;;;;1.88;55.61;100171.66;5025234;28;20040;-67
2020/12/31 09:45:30;;;;;;;36.90;14.25;;;;;;;1.54;56.78;100178.19;5024575;28;20857;-66
2020/12/31 09:47:58;;;;;;;28.02;13.60;;;;;;;2.05;55.27;100179.16;5023495;28;20033;-68
2020/12/31 09:50:24;;;;;;;30.25;13.27;;;;;;;1.89;56.12;100182.84;5019391;28;20037;-68
2020/12/31 09:52:50;;;;;;;28.05;14.30;;;;;;;2.64;53.93;100176.41;5022001;28;20037;-68
2020/12/31 09:55:16;;;;;;;35.78;14.15;;;;;;;2.54;54.59;100177.47;5024550;28;20152;-67
2020/12/31 09:57:41;;;;;;;29.02;14.13;;;;;;;2.55;53.66;100179.16;5024044;28;20029;-67
2020/12/31 10:00:07;;;;;;;28.88;13.32;;;;;;;2.77;53.67;100180.47;5023429;28;20025;-68
2020/12/31 10:02:37;;;;;;;25.63;13.52;;;;;;;2.02;54.83;100183.50;5024892;28;20041;-69
2020/12/31 10:05:04;;;;;;;31.17;13.68;;;;;;;3.00;53.80;100175.75;5008423;28;20048;-68
2020/12/31 10:07:30;;;;;;;29.88;12.90;;;;;;;3.12;52.32;100171.19;5024736;28;20033;-68
2020/12/31 10:09:56;;;;;;;26.25;11.77;;;;;;;3.46;51.62;100175.69;5023189;28;20033;-68
2020/12/31 10:12:24;;;;;;;24.52;12.27;;;;;;;2.82;52.80;100174.38;5040431;28;20036;-68
2020/12/31 10:14:49;;;;;;;19.52;10.93;;;;;;;1.97;55.14;100177.56;5023234;28;20422;-68
2020/12/31 10:17:15;;;;;;;25.50;11.13;;;;;;;2.05;54.44;100174.00;5020535;28;20041;-68
2020/12/31 10:19:41;;;;;;;30.02;11.32;;;;;;;2.61;53.10;100173.06;5020569;28;20037;-68
2020/12/31 10:22:08;;;;;;;21.52;11.20;;;;;;;2.87;52.78;100164.84;5018155;28;20112;-68
2020/12/31 10:24:34;;;;;;;19.90;11.68;;;;;;;1.94;55.54;100169.00;5020985;28;20043;-68
2020/12/31 10:27:00;;;;;;;23.50;11.40;;;;;;;1.90;55.41;100163.91;5019936;28;20029;-68
2020/12/31 10:29:26;;;;;;;26.02;12.43;;;;;;;2.06;55.34;100164.53;5023068;28;20037;-67
2020/12/31 10:31:55;;;;;;;26.33;13.13;;;;;;;1.46;56.99;100166.28;5021702;28;20036;-71
2020/12/31 10:34:22;;;;;;;21.10;10.77;;;;;;;2.07;54.80;100161.09;5024555;28;20067;-68
2020/12/31 10:36:56;;;;;;;21.48;10.68;;;;;;;2.15;55.08;100159.22;5001124;28;20111;-68
2020/12/31 10:39:23;;;;;;;21.27;10.88;;;;;;;1.74;56.22;100163.31;5026072;28;20040;-70
2020/12/31 10:41:50;;;;;;;20.35;9.90;;;;;;;2.14;54.88;100154.94;5023922;28;20029;-69
2020/12/31 10:44:17;;;;;;;20.38;9.35;;;;;;;2.32;54.06;100157.22;5019592;28;20037;-68
2020/12/31 10:46:43;;;;;;;18.27;9.10;;;;;;;2.38;54.34;100155.38;5016271;28;20757;-68
2020/12/31 10:49:09;;;;;;;22.70;10.65;;;;;;;2.42;54.10;100163.06;5020751;28;20510;-67
2020/12/31 10:51:40;;;;;;;19.65;10.82;;;;;;;3.05;52.94;100166.22;5039094;28;20175;-68
2020/12/31 10:54:06;;;;;;;18.08;9.35;;;;;;;3.13;51.45;100156.56;5022193;28;20037;-68
2020/12/31 10:56:32;;;;;;;17.83;8.85;;;;;;;3.49;51.71;100165.31;5027216;28;20034;-68
2020/12/31 10:58:58;;;;;;;18.83;9.73;;;;;;;3.51;52.25;100168.69;5023701;28;20121;-67
2020/12/31 11:01:24;;;;;;;23.55;11.32;;;;;;;2.50;54.31;100165.50;5023558;28;20033;-66
2020/12/31 11:03:49;;;;;;;17.48;9.27;;;;;;;2.68;53.84;100166.91;5018431;28;20125;-68
2020/12/31 11:06:22;;;;;;;19.58;10.02;;;;;;;2.11;55.01;100167.91;5016145;28;20046;-67
2020/12/31 11:08:48;;;;;;;18.08;9.35;;;;;;;2.50;54.41;100160.34;5017283;28;20045;-67
2020/12/31 11:11:24;;;;;;;20.58;9.98;;;;;;;2.46;54.58;100156.13;5003208;28;20033;-68
2020/12/31 11:13:51;;;;;;;17.25;9.55;;;;;;;3.37;52.32;100160.41;5002072;28;20473;-70
2020/12/31 11:16:17;;;;;;;19.90;10.07;;;;;;;2.72;54.05;100150.50;5035278;28;20061;-70
2020/12/31 11:18:43;;;;;;;19.65;9.35;;;;;;;3.10;53.11;100139.41;5020314;28;20045;-68
2020/12/31 11:21:11;;;;;;;20.45;9.98;;;;;;;2.93;53.59;100157.78;5017908;28;20451;-68
2020/12/31 11:23:36;;;;;;;20.33;9.23;;;;;;;2.23;54.78;100156.53;5023248;28;20394;-69